YFC94 WSSL-WSSL

Flight info

Callsign YFC94
Flight time 0h 33m
Altitude 6000
Route WSSL WSSL
Aircraft DA40/L-V/N

Departure

Time 2026-05-06 13:47
Airport Seletar Airport (WSSL)

Arrival

Time 2026-05-06 14:20
Airport Seletar Airport (WSSL)
Time Latitude Longitude Altitude Speed Heading
2026-05-06 13:34 1.41425 103.86349 50 ft 0 kts 149°
2026-05-06 13:41 1.41411 103.86357 50 ft 7 kts 148°
2026-05-06 13:41 1.41408 103.86396 50 ft 11 kts 31°
2026-05-06 13:41 1.41452 103.86425 50 ft 0 kts 34°
2026-05-06 13:43 1.41470 103.86441 50 ft 11 kts 47°
2026-05-06 13:43 1.41555 103.86503 50 ft 12 kts 32°
2026-05-06 13:43 1.41540 103.86560 50 ft 0 kts 124°
2026-05-06 13:44 1.41532 103.86573 50 ft 8 kts 121°
2026-05-06 13:45 1.41466 103.86625 51 ft 16 kts 196°
2026-05-06 13:45 1.41320 103.86503 50 ft 12 kts 18°
2026-05-06 13:45 1.41370 103.86551 50 ft 0 kts 34°
2026-05-06 13:46 1.41370 103.86552 50 ft 2 kts 34°
2026-05-06 13:46 1.41565 103.86679 52 ft 67 kts 30°
2026-05-06 13:46 1.42030 103.86971 215 ft 87 kts 30°
2026-05-06 13:46 1.42586 103.87302 389 ft 99 kts 27°
2026-05-06 13:47 1.43228 103.87611 527 ft 106 kts
2026-05-06 13:47 1.43877 103.87355 726 ft 101 kts 313°
2026-05-06 13:47 1.44240 103.86767 850 ft 106 kts 275°
2026-05-06 13:47 1.44005 103.86110 1031 ft 104 kts 224°
2026-05-06 13:48 1.43370 103.85759 1197 ft 103 kts 208°
2026-05-06 13:48 1.42710 103.85489 1403 ft 103 kts 199°
2026-05-06 13:48 1.42026 103.85239 1575 ft 105 kts 203°
2026-05-06 13:48 1.41357 103.84963 1793 ft 104 kts 205°
2026-05-06 13:49 1.40687 103.84692 1983 ft 105 kts 203°
2026-05-06 13:49 1.39993 103.84434 2128 ft 110 kts 202°
2026-05-06 13:49 1.39231 103.84147 2123 ft 122 kts 202°
2026-05-06 13:49 1.38428 103.83844 2170 ft 124 kts 201°
2026-05-06 13:50 1.37623 103.83523 2186 ft 124 kts 214°
2026-05-06 13:50 1.37091 103.82861 2182 ft 123 kts 251°
2026-05-06 13:50 1.37190 103.82070 2313 ft 116 kts 299°
2026-05-06 13:50 1.37817 103.81598 2427 ft 117 kts 341°
2026-05-06 13:51 1.38657 103.81400 2267 ft 130 kts 347°
2026-05-06 13:51 1.39462 103.81508 2241 ft 120 kts 47°
2026-05-06 13:51 1.40011 103.82076 2207 ft 112 kts 21°
2026-05-06 13:51 1.40751 103.82052 2197 ft 108 kts 323°
2026-05-06 13:52 1.41248 103.81500 2196 ft 108 kts 308°
2026-05-06 13:52 1.41697 103.80897 2147 ft 111 kts 303°
2026-05-06 13:52 1.42182 103.80255 2000 ft 119 kts 304°
2026-05-06 13:52 1.42630 103.79550 1884 ft 120 kts 301°
2026-05-06 13:53 1.43235 103.78994 1817 ft 118 kts 325°
2026-05-06 13:53 1.43911 103.78548 1796 ft 113 kts 321°
2026-05-06 13:53 1.44147 103.77919 1989 ft 99 kts 250°
2026-05-06 13:53 1.43657 103.77453 2132 ft 101 kts 215°
2026-05-06 13:54 1.42977 103.77323 2196 ft 103 kts 169°
2026-05-06 13:54 1.42277 103.77530 2176 ft 105 kts 165°
2026-05-06 13:54 1.41615 103.77771 2218 ft 102 kts 163°
2026-05-06 13:54 1.40938 103.77985 2276 ft 98 kts 163°
2026-05-06 13:55 1.40302 103.78201 2388 ft 100 kts 162°
2026-05-06 13:55 1.39628 103.78432 2602 ft 104 kts 160°
2026-05-06 13:55 1.38964 103.78722 2868 ft 105 kts 158°
2026-05-06 13:55 1.38254 103.79011 2984 ft 117 kts 156°
2026-05-06 13:56 1.37534 103.79360 3244 ft 113 kts 153°
2026-05-06 13:56 1.36890 103.79829 3443 ft 117 kts 145°
2026-05-06 13:56 1.36166 103.80242 3574 ft 123 kts 151°
2026-05-06 13:56 1.35466 103.80722 3780 ft 119 kts 126°
2026-05-06 13:57 1.35506 103.81438 4201 ft 101 kts 63°
2026-05-06 13:57 1.35840 103.82064 4467 ft 102 kts 54°
2026-05-06 13:57 1.36257 103.82676 4663 ft 110 kts 53°
2026-05-06 13:57 1.36805 103.83183 4938 ft 108 kts 37°
2026-05-06 13:58 1.37381 103.83672 5190 ft 109 kts 40°
2026-05-06 13:58 1.37997 103.84199 5261 ft 124 kts 43°
2026-05-06 13:58 1.38390 103.84981 5401 ft 128 kts 76°
2026-05-06 13:58 1.38530 103.85817 5505 ft 119 kts 80°
2026-05-06 13:59 1.38712 103.86622 5500 ft 120 kts 70°
2026-05-06 13:59 1.39202 103.87238 5542 ft 114 kts 27°
2026-05-06 13:59 1.39948 103.87529 5504 ft 117 kts 15°
2026-05-06 13:59 1.40727 103.87743 5513 ft 116 kts
2026-05-06 14:00 1.41531 103.87808 5491 ft 116 kts 357°
2026-05-06 14:00 1.42258 103.87510 5428 ft 117 kts 311°
2026-05-06 14:00 1.42604 103.86789 5424 ft 112 kts 289°
2026-05-06 14:00 1.42817 103.86063 5501 ft 106 kts 283°
2026-05-06 14:01 1.42986 103.85355 5537 ft 106 kts 278°
2026-05-06 14:01 1.43084 103.84625 5576 ft 105 kts 275°
2026-05-06 14:01 1.43136 103.83890 5648 ft 107 kts 272°
2026-05-06 14:01 1.43148 103.83124 5650 ft 112 kts 269°
2026-05-06 14:02 1.43117 103.82332 5656 ft 115 kts 266°
2026-05-06 14:02 1.43043 103.81521 5657 ft 117 kts 264°
2026-05-06 14:02 1.43049 103.80709 5651 ft 119 kts 280°
2026-05-06 14:02 1.43331 103.79934 5643 ft 120 kts 307°
2026-05-06 14:03 1.44093 103.79572 5504 ft 132 kts 359°
2026-05-06 14:03 1.44921 103.79931 5479 ft 130 kts 44°
2026-05-06 14:03 1.45206 103.80757 5442 ft 131 kts 101°
2026-05-06 14:03 1.44668 103.81404 5551 ft 111 kts 170°
2026-05-06 14:04 1.44044 103.81162 5703 ft 106 kts 233°
2026-05-06 14:04 1.43850 103.80389 5468 ft 125 kts 278°
2026-05-06 14:04 1.44045 103.79539 5050 ft 130 kts 290°
2026-05-06 14:04 1.44181 103.78667 4690 ft 128 kts 271°
2026-05-06 14:05 1.44029 103.77778 4239 ft 133 kts 248°
2026-05-06 14:05 1.43493 103.77038 3847 ft 132 kts 222°
2026-05-06 14:05 1.42670 103.76642 3448 ft 133 kts 196°
2026-05-06 14:05 1.41752 103.76596 3052 ft 133 kts 174°
2026-05-06 14:06 1.40843 103.76704 2741 ft 128 kts 175°
2026-05-06 14:06 1.40002 103.76803 2609 ft 114 kts 175°
2026-05-06 14:06 1.39237 103.76903 2524 ft 113 kts 173°
2026-05-06 14:06 1.38497 103.77169 2483 ft 112 kts 157°
2026-05-06 14:07 1.37804 103.77529 2454 ft 111 kts 152°
2026-05-06 14:07 1.37193 103.77912 2571 ft 98 kts 144°
2026-05-06 14:07 1.36807 103.78460 2662 ft 95 kts 115°
2026-05-06 14:07 1.36602 103.79113 2808 ft 102 kts 104°
2026-05-06 14:08 1.36481 103.79827 2962 ft 106 kts 96°
2026-05-06 14:08 1.36448 103.80568 3102 ft 109 kts 91°
2026-05-06 14:08 1.36466 103.81343 3172 ft 112 kts 86°
2026-05-06 14:08 1.36549 103.82156 3156 ft 121 kts 81°
2026-05-06 14:09 1.36756 103.82974 3132 ft 126 kts 70°
2026-05-06 14:09 1.37082 103.83788 3120 ft 126 kts 65°
2026-05-06 14:09 1.37479 103.84561 3119 ft 124 kts 59°
2026-05-06 14:09 1.37973 103.85269 3107 ft 124 kts 51°
2026-05-06 14:10 1.38538 103.85927 3089 ft 124 kts 43°
2026-05-06 14:10 1.39191 103.86491 3086 ft 123 kts 34°
2026-05-06 14:10 1.39912 103.86948 3066 ft 123 kts 29°
2026-05-06 14:10 1.40651 103.87383 3046 ft 124 kts 28°
2026-05-06 14:11 1.41420 103.87811 2914 ft 129 kts 26°
2026-05-06 14:11 1.42252 103.88123 2700 ft 129 kts
2026-05-06 14:11 1.43108 103.88052 2539 ft 120 kts 338°
2026-05-06 14:11 1.43761 103.87547 2265 ft 122 kts 303°
2026-05-06 14:12 1.44023 103.86781 1940 ft 116 kts 274°
2026-05-06 14:12 1.43860 103.86004 1626 ft 114 kts 243°
2026-05-06 14:12 1.43320 103.85453 1365 ft 109 kts 214°
2026-05-06 14:12 1.42710 103.85091 1212 ft 99 kts 213°
2026-05-06 14:13 1.42125 103.84765 1070 ft 93 kts 208°
2026-05-06 14:13 1.41535 103.84511 1036 ft 91 kts 204°
2026-05-06 14:13 1.40950 103.84285 1040 ft 90 kts 205°
2026-05-06 14:13 1.40370 103.84052 1049 ft 89 kts 204°
2026-05-06 14:14 1.39748 103.83874 977 ft 97 kts 184°
2026-05-06 14:14 1.39178 103.84202 895 ft 97 kts 123°
2026-05-06 14:14 1.39025 103.84826 713 ft 92 kts 85°
2026-05-06 14:14 1.39390 103.85291 481 ft 90 kts 26°
2026-05-06 14:15 1.39915 103.85612 341 ft 85 kts 31°
2026-05-06 14:15 1.40399 103.85918 229 ft 81 kts 31°
2026-05-06 14:15 1.40857 103.86215 111 ft 76 kts 31°
2026-05-06 14:15 1.41278 103.86488 52 ft 67 kts 31°
2026-05-06 14:16 1.41683 103.86743 88 ft 80 kts 31°
2026-05-06 14:16 1.42195 103.87079 281 ft 95 kts 32°
2026-05-06 14:16 1.42567 103.87327 417 ft 100 kts 31°
2026-05-06 14:16 1.43204 103.87651 584 ft 106 kts
2026-05-06 14:17 1.43804 103.87349 750 ft 102 kts 289°
2026-05-06 14:17 1.43519 103.86748 896 ft 104 kts 221°
2026-05-06 14:17 1.42942 103.86328 1035 ft 105 kts 216°
2026-05-06 14:17 1.42320 103.85920 1116 ft 108 kts 215°
2026-05-06 14:18 1.41674 103.85520 1169 ft 110 kts 213°
2026-05-06 14:18 1.41008 103.85127 1151 ft 111 kts 211°
2026-05-06 14:18 1.40317 103.84767 1087 ft 111 kts 208°
2026-05-06 14:18 1.39664 103.84547 948 ft 94 kts 178°
2026-05-06 14:19 1.39169 103.84917 737 ft 93 kts 115°
2026-05-06 14:19 1.39182 103.85518 600 ft 81 kts 44°
2026-05-06 14:19 1.39716 103.85658 401 ft 83 kts
2026-05-06 14:19 1.40244 103.85826 268 ft 78 kts 27°
2026-05-06 14:20 1.40688 103.86108 127 ft 72 kts 31°
2026-05-06 14:20 1.41088 103.86367 54 ft 63 kts 31°
2026-05-06 14:20 1.41419 103.86585 51 ft 53 kts 32°
2026-05-06 14:20 1.41674 103.86748 49 ft 26 kts 32°
2026-05-06 14:21 1.41749 103.86744 49 ft 15 kts 294°
2026-05-06 14:21 1.41797 103.86656 50 ft 13 kts 259°
2026-05-06 14:21 1.41715 103.86588 50 ft 18 kts 212°
2026-05-06 14:21 1.41603 103.86515 50 ft 21 kts 213°
2026-05-06 14:22 1.41481 103.86432 50 ft 14 kts 209°
2026-05-06 14:22 1.41459 103.86407 50 ft 5 kts 147°
2026-05-06 14:22 1.41458 103.86408 50 ft 0 kts 147°
2026-05-06 14:40 1.41457 103.86408 50 ft 0 kts 147°
2026-05-06 14:40 1.41457 103.86409 50 ft 0 kts 147°
2026-05-06 14:41 1.41455 103.86410 50 ft 0 kts 147°
2026-05-06 14:42 1.41468 103.86446 50 ft 15 kts 27°
2026-05-06 14:42 1.41511 103.86476 50 ft 0 kts 33°
2026-05-06 14:45 1.41562 103.86509 50 ft 10 kts 52°
2026-05-06 14:45 1.41564 103.86527 50 ft 0 kts 119°
2026-05-06 14:45 1.41554 103.86541 50 ft 8 kts 127°
2026-05-06 14:46 1.41542 103.86558 50 ft 0 kts 121°
2026-05-06 14:52 1.41530 103.86577 50 ft 10 kts 124°
2026-05-06 14:52 1.41542 103.86666 50 ft 22 kts 28°
2026-05-06 14:53 1.41831 103.86847 88 ft 74 kts 30°
2026-05-06 14:53 1.42299 103.87139 302 ft 87 kts 28°
2026-05-06 14:53 1.42859 103.87301 613 ft 82 kts 339°
2026-05-06 14:53 1.43238 103.86893 849 ft 87 kts 274°
2026-05-06 14:54 1.42943 103.86383 1141 ft 88 kts 227°
2026-05-06 14:54 1.42479 103.85943 1388 ft 93 kts 222°
2026-05-06 14:54 1.41957 103.85518 1617 ft 98 kts 220°
2026-05-06 14:54 1.41437 103.85109 1950 ft 92 kts 218°
2026-05-06 14:55 1.40915 103.84725 2249 ft 93 kts 218°
2026-05-06 14:55 1.40424 103.84259 2421 ft 103 kts 237°
2026-05-06 14:55 1.40136 103.83637 2748 ft 96 kts 251°
2026-05-06 14:55 1.39855 103.82980 2864 ft 111 kts 234°
2026-05-06 14:56 1.39100 103.82654 2793 ft 133 kts 175°
2026-05-06 14:56 1.38358 103.83143 2900 ft 134 kts 136°
2026-05-06 14:56 1.37695 103.83898 2674 ft 149 kts 130°
2026-05-06 14:56 1.37051 103.84709 2383 ft 142 kts 128°
2026-05-06 14:57 1.36510 103.85426 2127 ft 118 kts 128°
2026-05-06 14:57 1.35940 103.85908 1891 ft 101 kts 173°
2026-05-06 14:57 1.35451 103.85538 1526 ft 96 kts 276°
2026-05-06 14:57 1.35859 103.85013 1218 ft 94 kts 323°
2026-05-06 14:58 1.36409 103.84659 985 ft 90 kts 326°
2026-05-06 14:58 1.36950 103.84413 857 ft 82 kts 349°
2026-05-06 14:58 1.37476 103.84400 796 ft 74 kts 358°
2026-05-06 14:58 1.37973 103.84439 698 ft 68 kts
2026-05-06 14:59 1.38394 103.84612 621 ft 65 kts 24°
2026-05-06 14:59 1.38799 103.84850 561 ft 70 kts 30°
2026-05-06 14:59 1.39211 103.85128 502 ft 74 kts 32°
2026-05-06 14:59 1.39667 103.85419 403 ft 76 kts 30°
2026-05-06 15:00 1.40076 103.85700 327 ft 69 kts 32°
2026-05-06 15:00 1.40467 103.85960 213 ft 64 kts 30°
2026-05-06 15:00 1.40822 103.86188 126 ft 57 kts 32°
2026-05-06 15:00 1.41130 103.86396 63 ft 48 kts 33°
2026-05-06 15:01 1.41377 103.86549 50 ft 38 kts 32°
2026-05-06 15:01 1.41502 103.86615 51 ft 12 kts 314°
2026-05-06 15:01 1.41533 103.86564 50 ft 16 kts 302°